createdAt,value
2024-05-09T00:00:38.644Z,49
2024-05-09T00:01:31.973Z,49
2024-05-09T00:02:32.188Z,49
2024-05-09T00:03:31.448Z,52
2024-05-09T00:04:31.374Z,54
2024-05-09T00:05:31.440Z,50
2024-05-09T00:06:31.363Z,55
2024-05-09T00:07:31.754Z,53
2024-05-09T00:08:31.936Z,51
2024-05-09T00:09:31.358Z,53
2024-05-09T00:10:36.570Z,54
2024-05-09T00:11:31.465Z,56
2024-05-09T00:12:31.367Z,54
2024-05-09T00:13:31.957Z,56
2024-05-09T00:14:31.493Z,54
2024-05-09T00:15:31.370Z,54
2024-05-09T00:16:32.036Z,55
2024-05-09T00:17:31.618Z,49
2024-05-09T00:18:33.563Z,54
2024-05-09T00:19:32.162Z,53
2024-05-09T00:20:37.950Z,50
2024-05-09T00:21:31.679Z,55
2024-05-09T00:22:31.364Z,57
2024-05-09T00:23:31.895Z,55
2024-05-09T00:24:31.354Z,59
2024-05-09T00:25:31.444Z,56
2024-05-09T00:26:31.417Z,57
2024-05-09T00:27:31.368Z,55
2024-05-09T00:28:31.427Z,54
2024-05-09T00:29:31.444Z,56
2024-05-09T00:30:35.308Z,54
2024-05-09T00:31:32.081Z,60
2024-05-09T00:32:31.657Z,58
2024-05-09T00:33:32.295Z,59
2024-05-09T00:34:31.726Z,61
2024-05-09T00:35:31.460Z,58
2024-05-09T00:36:31.429Z,58
2024-05-09T00:37:31.439Z,60
2024-05-09T00:38:32.301Z,59
2024-05-09T00:39:32.213Z,59
2024-05-09T00:40:38.722Z,61
2024-05-09T00:41:32.170Z,55
2024-05-09T00:42:31.968Z,61
2024-05-09T00:43:31.367Z,55
2024-05-09T00:44:31.884Z,58
2024-05-09T00:45:31.674Z,61
2024-05-09T00:46:31.444Z,58
2024-05-09T00:47:31.050Z,64
2024-05-09T00:48:31.601Z,58
2024-05-09T00:49:32.029Z,59
2024-05-09T00:50:36.400Z,57
2024-05-09T00:51:31.379Z,60
2024-05-09T00:52:31.854Z,58
2024-05-09T00:53:32.063Z,57
2024-05-09T00:54:31.435Z,61
2024-05-09T00:55:31.369Z,59
2024-05-09T00:56:31.763Z,59
2024-05-09T00:57:31.379Z,59
2024-05-09T00:58:32.126Z,55
2024-05-09T00:59:31.414Z,54
2024-05-09T01:00:38.253Z,55
2024-05-09T01:01:32.314Z,55
2024-05-09T01:02:32.101Z,53
2024-05-09T01:03:31.576Z,56
2024-05-09T01:04:31.482Z,55
2024-05-09T01:05:31.381Z,54
2024-05-09T01:06:31.371Z,59
2024-05-09T01:07:31.374Z,59
2024-05-09T01:08:31.510Z,54
2024-05-09T01:09:31.770Z,58
2024-05-09T01:10:34.898Z,59
2024-05-09T01:11:31.520Z,59
2024-05-09T01:12:32.034Z,57
2024-05-09T01:13:31.388Z,55
2024-05-09T01:14:31.402Z,55
2024-05-09T01:15:31.976Z,65
2024-05-09T01:16:31.364Z,58
2024-05-09T01:17:31.957Z,61
2024-05-09T01:18:31.521Z,60
2024-05-09T01:19:31.714Z,63
2024-05-09T01:20:39.920Z,60
2024-05-09T01:21:31.492Z,60
2024-05-09T01:22:32.247Z,64
2024-05-09T01:23:32.464Z,62
2024-05-09T01:24:31.563Z,63
2024-05-09T01:25:31.811Z,68
2024-05-09T01:26:32.079Z,66
2024-05-09T01:27:32.437Z,60
2024-05-09T01:28:32.126Z,67
2024-05-09T01:29:31.673Z,64
2024-05-09T01:30:35.162Z,64
2024-05-09T01:31:32.219Z,67
2024-05-09T01:32:31.592Z,65
2024-05-09T01:33:31.991Z,68
2024-05-09T01:34:31.365Z,66
2024-05-09T01:35:31.971Z,70
2024-05-09T01:36:31.415Z,69
2024-05-09T01:37:31.474Z,71
2024-05-09T01:38:31.558Z,76
2024-05-09T01:39:31.624Z,69
2024-05-09T01:40:37.601Z,72
2024-05-09T01:41:31.829Z,70
2024-05-09T01:42:31.393Z,73
2024-05-09T01:43:31.843Z,73
2024-05-09T01:44:31.869Z,76
2024-05-09T01:45:31.649Z,71
2024-05-09T01:46:31.363Z,73
2024-05-09T01:47:32.062Z,75
2024-05-09T01:48:31.566Z,75
2024-05-09T01:49:31.454Z,75
2024-05-09T01:50:38.268Z,75
2024-05-09T01:51:31.360Z,76
2024-05-09T01:52:31.978Z,72
2024-05-09T01:53:32.131Z,79
2024-05-09T01:54:30.224Z,75
2024-05-09T01:55:31.405Z,82
2024-05-09T01:56:31.416Z,80
2024-05-09T01:57:31.883Z,82
2024-05-09T01:58:31.392Z,80
2024-05-09T01:59:31.959Z,79
2024-05-09T02:00:38.730Z,77
2024-05-09T02:01:55.302Z,72
2024-05-09T02:02:31.516Z,69
2024-05-09T02:03:31.670Z,71
2024-05-09T02:04:31.526Z,74
2024-05-09T02:05:31.656Z,77
2024-05-09T02:06:31.442Z,72
2024-05-09T02:07:31.768Z,72
2024-05-09T02:08:31.496Z,74
2024-05-09T02:09:31.375Z,74
2024-05-09T02:10:33.258Z,77
2024-05-09T02:11:31.745Z,75
2024-05-09T02:12:32.292Z,73
2024-05-09T02:13:31.500Z,77
2024-05-09T02:14:31.558Z,75
2024-05-09T02:15:31.978Z,75
2024-05-09T02:16:31.361Z,78
2024-05-09T02:17:32.034Z,78
2024-05-09T02:18:31.459Z,78
2024-05-09T02:19:31.605Z,75
2024-05-09T02:20:36.121Z,86
2024-05-09T02:21:31.362Z,75
2024-05-09T02:22:31.820Z,82
2024-05-09T02:23:31.879Z,79
2024-05-09T02:24:31.384Z,91
2024-05-09T02:26:31.419Z,89
2024-05-09T02:27:31.388Z,87
2024-05-09T02:28:31.441Z,90
2024-05-09T02:29:31.551Z,92
2024-05-09T02:30:39.134Z,90
2024-05-09T02:31:31.728Z,88
2024-05-09T02:32:32.346Z,87
2024-05-09T02:33:31.812Z,91
2024-05-09T02:34:32.012Z,93
2024-05-09T02:35:31.525Z,94
2024-05-09T02:36:31.676Z,89
2024-05-09T02:37:31.446Z,95
2024-05-09T02:38:32.147Z,88
2024-05-09T02:39:31.384Z,89
2024-05-09T02:40:37.297Z,84
2024-05-09T02:41:32.028Z,80
2024-05-09T02:42:31.847Z,87
2024-05-09T02:43:31.896Z,86
2024-05-09T02:44:32.143Z,83
2024-05-09T02:45:31.455Z,85
2024-05-09T02:46:31.438Z,85
2024-05-09T02:47:31.854Z,84
2024-05-09T02:48:32.185Z,83
2024-05-09T02:49:31.973Z,92
2024-05-09T02:50:37.845Z,87
2024-05-09T02:51:31.388Z,89
2024-05-09T02:52:32.336Z,82
2024-05-09T02:53:32.060Z,86
2024-05-09T02:54:32.109Z,83
2024-05-09T02:55:31.569Z,89
2024-05-09T02:56:31.386Z,96
2024-05-09T02:57:31.370Z,94
2024-05-09T02:58:31.867Z,85
2024-05-09T02:59:32.111Z,94
2024-05-09T03:00:38.442Z,81
2024-05-09T03:01:30.842Z,86
2024-05-09T03:02:31.512Z,76
2024-05-09T03:04:31.615Z,76
2024-05-09T03:05:31.514Z,74
2024-05-09T03:06:32.081Z,69
2024-05-09T03:07:31.789Z,68
2024-05-09T03:08:31.507Z,62
2024-05-09T03:09:31.756Z,62
2024-05-09T03:10:36.115Z,59
2024-05-09T03:11:31.882Z,62
2024-05-09T03:12:31.529Z,64
2024-05-09T03:13:32.345Z,58
2024-05-09T03:14:31.463Z,60
2024-05-09T03:15:31.403Z,50
2024-05-09T03:16:31.373Z,55
2024-05-09T03:17:31.674Z,47
2024-05-09T03:18:31.768Z,43
2024-05-09T03:19:32.048Z,41
2024-05-09T03:20:34.831Z,37
2024-05-09T03:21:31.407Z,38
2024-05-09T03:22:32.144Z,37
2024-05-09T03:23:31.962Z,36
2024-05-09T03:24:31.673Z,38
2024-05-09T03:25:31.695Z,41
2024-05-09T03:26:31.479Z,38
2024-05-09T03:27:31.362Z,38
2024-05-09T03:28:31.537Z,40
2024-05-09T03:29:31.551Z,37
2024-05-09T03:30:39.944Z,36
2024-05-09T03:31:31.372Z,40
2024-05-09T03:32:31.936Z,39
2024-05-09T03:33:31.808Z,37
2024-05-09T03:34:31.481Z,35
2024-05-09T03:35:31.522Z,32
2024-05-09T03:36:31.444Z,35
2024-05-09T03:37:31.617Z,30
2024-05-09T03:38:31.502Z,35
2024-05-09T03:39:32.072Z,37
2024-05-09T03:40:31.986Z,35
2024-05-09T03:41:32.259Z,31
2024-05-09T03:42:31.584Z,35
2024-05-09T03:43:31.373Z,26
2024-05-09T03:44:31.474Z,24
2024-05-09T03:45:31.855Z,25
2024-05-09T03:46:31.738Z,31
2024-05-09T03:47:31.528Z,34
2024-05-09T03:48:32.300Z,43
2024-05-09T03:49:31.835Z,33
2024-05-09T03:50:35.495Z,34
2024-05-09T03:51:31.937Z,39
2024-05-09T03:52:31.368Z,35
2024-05-09T03:53:32.215Z,40
2024-05-09T03:54:31.667Z,40
2024-05-09T03:55:31.583Z,40
2024-05-09T03:56:31.786Z,41
2024-05-09T03:57:31.834Z,37
2024-05-09T03:58:31.372Z,38
2024-05-09T03:59:31.443Z,35
2024-05-09T04:00:37.596Z,33
2024-05-09T04:01:32.347Z,32
2024-05-09T04:02:31.529Z,39
2024-05-09T04:03:31.809Z,33
2024-05-09T04:04:32.110Z,47
2024-05-09T04:05:31.626Z,50
2024-05-09T04:06:31.429Z,31
2024-05-09T04:07:31.446Z,38
2024-05-09T04:08:30.250Z,43
2024-05-09T04:09:31.725Z,50
2024-05-09T04:10:34.104Z,45
2024-05-09T04:11:31.603Z,38
2024-05-09T04:12:32.319Z,43
2024-05-09T04:13:31.613Z,38
2024-05-09T04:14:31.639Z,37
2024-05-09T04:15:31.762Z,48
2024-05-09T04:16:31.786Z,34
2024-05-09T04:17:31.584Z,32
2024-05-09T04:18:32.198Z,33
2024-05-09T04:19:31.668Z,34
2024-05-09T04:20:38.337Z,42
2024-05-09T04:21:31.411Z,36
2024-05-09T04:22:31.924Z,37
2024-05-09T04:23:32.273Z,42
2024-05-09T04:24:31.387Z,32
2024-05-09T04:25:31.385Z,33
2024-05-09T04:26:31.475Z,51
2024-05-09T04:27:31.379Z,53
2024-05-09T04:28:32.307Z,52
2024-05-09T04:29:31.500Z,106
2024-05-09T04:30:37.920Z,61
2024-05-09T04:31:33.359Z,60
2024-05-09T04:32:31.852Z,55
2024-05-09T04:33:31.591Z,36
2024-05-09T04:34:32.321Z,50
2024-05-09T04:35:32.232Z,31
2024-05-09T04:36:31.511Z,36
2024-05-09T04:37:32.401Z,38
2024-05-09T04:38:32.120Z,39
2024-05-09T04:39:31.364Z,40
2024-05-09T04:40:34.998Z,42
2024-05-09T04:41:31.475Z,35
2024-05-09T04:42:31.827Z,34
2024-05-09T04:43:31.981Z,44
2024-05-09T04:44:31.478Z,56
2024-05-09T04:45:32.011Z,71
2024-05-09T04:46:31.803Z,49
2024-05-09T04:47:31.695Z,54
2024-05-09T04:48:32.099Z,31
2024-05-09T04:49:32.093Z,47
2024-05-09T04:50:36.909Z,41
2024-05-09T04:51:31.385Z,49
2024-05-09T04:52:31.422Z,45
2024-05-09T04:53:31.525Z,54
2024-05-09T04:54:36.262Z,39
2024-05-09T04:55:31.841Z,148
2024-05-09T04:56:31.858Z,39
2024-05-09T04:57:32.029Z,42
2024-05-09T04:58:31.387Z,60
2024-05-09T04:59:32.168Z,39
2024-05-09T05:00:36.291Z,50
2024-05-09T05:01:31.765Z,59
2024-05-09T05:02:32.353Z,42
2024-05-09T05:03:31.606Z,46
2024-05-09T05:04:31.546Z,35
2024-05-09T05:05:31.532Z,47
2024-05-09T05:06:31.556Z,71
2024-05-09T05:07:31.866Z,48
2024-05-09T05:08:31.644Z,33
2024-05-09T05:09:31.565Z,34
2024-05-09T05:10:36.100Z,38
2024-05-09T05:11:31.455Z,38
2024-05-09T05:12:31.568Z,55
2024-05-09T05:13:32.020Z,65
2024-05-09T05:14:32.048Z,44
2024-05-09T05:15:30.180Z,35
2024-05-09T05:16:31.848Z,60
2024-05-09T05:17:32.004Z,47
2024-05-09T05:18:31.526Z,53
2024-05-09T05:19:31.659Z,68
2024-05-09T05:20:33.842Z,45
2024-05-09T05:21:31.509Z,47
2024-05-09T05:22:31.829Z,41
2024-05-09T05:23:31.425Z,54
2024-05-09T05:24:31.963Z,43
2024-05-09T05:25:31.399Z,76
2024-05-09T05:26:31.558Z,43
2024-05-09T05:27:31.422Z,74
2024-05-09T05:28:31.946Z,62
2024-05-09T05:29:31.476Z,41
2024-05-09T05:30:34.738Z,71
2024-05-09T05:31:31.434Z,91
2024-05-09T05:32:31.566Z,49
2024-05-09T05:33:31.642Z,72
2024-05-09T05:34:31.386Z,45
2024-05-09T05:35:32.447Z,45
2024-05-09T05:36:31.404Z,40
2024-05-09T05:37:31.542Z,59
2024-05-09T05:38:31.572Z,78
2024-05-09T05:39:31.373Z,40
2024-05-09T05:40:36.469Z,38
2024-05-09T05:41:31.833Z,53
2024-05-09T05:42:31.381Z,46
2024-05-09T05:43:31.923Z,43
2024-05-09T05:44:31.754Z,46
2024-05-09T05:45:32.075Z,87
2024-05-09T05:46:31.756Z,81
2024-05-09T05:47:31.606Z,63
2024-05-09T05:48:32.455Z,54
2024-05-09T05:49:31.885Z,43
2024-05-09T05:50:35.688Z,44
2024-05-09T05:51:31.396Z,50
2024-05-09T05:52:31.807Z,60
2024-05-09T05:53:31.621Z,72
2024-05-09T05:54:31.379Z,40
2024-05-09T05:55:32.018Z,65
2024-05-09T05:56:31.752Z,29
2024-05-09T05:57:31.376Z,48
2024-05-09T05:58:31.471Z,85
2024-05-09T05:59:31.923Z,94
2024-05-09T06:01:31.527Z,89
2024-05-09T06:02:31.498Z,120
2024-05-09T06:03:31.530Z,87
2024-05-09T06:04:31.545Z,61
2024-05-09T06:05:32.357Z,43
2024-05-09T06:06:32.142Z,103
2024-05-09T06:07:32.085Z,71
2024-05-09T06:08:31.414Z,67
2024-05-09T06:09:32.048Z,46
2024-05-09T06:10:38.039Z,39
2024-05-09T06:11:31.610Z,41
2024-05-09T06:12:31.450Z,86
2024-05-09T06:13:31.917Z,36
2024-05-09T06:14:31.701Z,34
2024-05-09T06:15:31.497Z,68
2024-05-09T06:16:31.404Z,41
2024-05-09T06:17:31.613Z,86
2024-05-09T06:18:31.552Z,50
2024-05-09T06:19:32.337Z,61
2024-05-09T06:20:36.411Z,47
2024-05-09T06:21:31.464Z,111
2024-05-09T06:22:30.199Z,60
2024-05-09T06:23:31.524Z,105
2024-05-09T06:24:31.917Z,55
2024-05-09T06:25:31.408Z,65
2024-05-09T06:26:32.346Z,47
2024-05-09T06:27:31.396Z,33
2024-05-09T06:28:32.013Z,36
2024-05-09T06:29:32.076Z,26
2024-05-09T06:30:38.327Z,41
2024-05-09T06:31:31.729Z,46
2024-05-09T06:32:31.710Z,120
2024-05-09T06:33:31.683Z,86
2024-05-09T06:34:31.561Z,38
2024-05-09T06:35:31.806Z,27
2024-05-09T06:36:31.392Z,51
2024-05-09T06:37:31.445Z,32
2024-05-09T06:38:31.508Z,28
2024-05-09T06:39:31.987Z,35
2024-05-09T06:40:37.384Z,30
2024-05-09T06:41:31.749Z,66
2024-05-09T06:42:31.725Z,24
2024-05-09T06:43:32.193Z,28
2024-05-09T06:44:31.533Z,81
2024-05-09T06:45:31.640Z,45
2024-05-09T06:46:31.911Z,29
2024-05-09T06:47:32.153Z,211
2024-05-09T06:48:31.753Z,42
2024-05-09T06:49:31.553Z,116
2024-05-09T06:50:37.460Z,76
2024-05-09T06:51:31.601Z,260
2024-05-09T06:52:31.395Z,120
2024-05-09T06:53:32.240Z,36
2024-05-09T06:54:31.426Z,46
2024-05-09T06:55:32.185Z,35
2024-05-09T06:56:32.012Z,80
2024-05-09T06:57:31.399Z,63
2024-05-09T06:58:32.005Z,119
2024-05-09T06:59:31.637Z,252
2024-05-09T07:00:38.586Z,38
2024-05-09T07:01:31.582Z,30
2024-05-09T07:02:31.514Z,162
2024-05-09T07:03:31.652Z,60
2024-05-09T07:04:31.546Z,40
2024-05-09T07:05:31.693Z,41
2024-05-09T07:06:31.373Z,40
2024-05-09T07:07:31.411Z,52
2024-05-09T07:08:31.892Z,36
2024-05-09T07:09:31.426Z,49
2024-05-09T07:10:35.292Z,38
2024-05-09T07:11:32.058Z,45
2024-05-09T07:12:32.465Z,37
2024-05-09T07:13:31.872Z,30
2024-05-09T07:14:33.952Z,31
2024-05-09T07:15:31.437Z,28
2024-05-09T07:16:31.394Z,35
2024-05-09T07:17:31.778Z,41
2024-05-09T07:18:32.373Z,30
2024-05-09T07:19:31.510Z,28
2024-05-09T07:20:34.838Z,37
2024-05-09T07:21:32.024Z,35
2024-05-09T07:22:31.402Z,41
2024-05-09T07:23:31.494Z,32
2024-05-09T07:24:31.393Z,32
2024-05-09T07:25:31.574Z,25
2024-05-09T07:26:31.517Z,28
2024-05-09T07:27:32.046Z,29
2024-05-09T07:28:32.023Z,31
2024-05-09T07:29:31.276Z,33
2024-05-09T07:30:34.333Z,26
2024-05-09T07:31:31.432Z,45
2024-05-09T07:32:31.593Z,52
2024-05-09T07:33:31.575Z,74
2024-05-09T07:34:32.487Z,52
2024-05-09T07:35:31.810Z,32
2024-05-09T07:36:32.158Z,77
2024-05-09T07:37:31.481Z,48
2024-05-09T07:38:31.519Z,47
2024-05-09T07:39:32.066Z,47
2024-05-09T07:40:36.019Z,40
2024-05-09T07:41:31.612Z,35
2024-05-09T07:42:31.469Z,33
2024-05-09T07:43:32.212Z,32
2024-05-09T07:44:31.537Z,32
2024-05-09T07:45:48.144Z,30
2024-05-09T07:47:37.138Z,30
2024-05-09T07:48:57.498Z,31
2024-05-09T07:50:01.418Z,32
2024-05-09T07:52:23.716Z,29
2024-05-09T07:53:08.320Z,28
2024-05-09T07:53:32.764Z,33
2024-05-09T07:53:40.520Z,28
2024-05-09T07:54:32.002Z,28
2024-05-09T07:55:31.753Z,28
2024-05-09T07:56:32.343Z,30
2024-05-09T07:57:31.512Z,27
2024-05-09T07:58:31.407Z,29
2024-05-09T07:59:35.159Z,29
2024-05-09T08:00:32.296Z,25
2024-05-09T08:01:31.987Z,25
2024-05-09T08:02:31.626Z,25
2024-05-09T08:03:31.569Z,23
2024-05-09T08:04:31.912Z,24
2024-05-09T08:05:31.671Z,24
2024-05-09T08:06:31.918Z,26
2024-05-09T08:07:32.161Z,29
2024-05-09T08:08:31.674Z,29
2024-05-09T08:09:31.945Z,28
2024-05-09T08:10:32.162Z,30
2024-05-09T08:11:31.961Z,32
2024-05-09T08:12:32.259Z,32
2024-05-09T08:13:31.535Z,34
2024-05-09T08:14:31.675Z,32
2024-05-09T08:15:31.458Z,31
2024-05-09T08:16:31.850Z,35
2024-05-09T08:17:31.989Z,53
2024-05-09T08:18:32.428Z,36
2024-05-09T08:19:31.481Z,33
2024-05-09T08:20:35.137Z,31
2024-05-09T08:21:31.614Z,29
2024-05-09T08:22:32.073Z,31
2024-05-09T08:23:31.413Z,29
2024-05-09T08:24:31.600Z,31
2024-05-09T08:25:31.395Z,31
2024-05-09T08:26:31.367Z,27
2024-05-09T08:27:31.455Z,31
2024-05-09T08:28:31.991Z,30
2024-05-09T08:29:31.480Z,28
2024-05-09T08:30:36.839Z,29
2024-05-09T08:31:31.696Z,29
2024-05-09T08:32:32.110Z,26
2024-05-09T08:33:31.780Z,27
2024-05-09T08:34:31.569Z,26
2024-05-09T08:35:32.252Z,26
2024-05-09T08:36:30.265Z,28
2024-05-09T08:37:36.848Z,25
2024-05-09T08:38:31.820Z,24
2024-05-09T08:39:31.949Z,24
2024-05-09T08:40:35.283Z,24
2024-05-09T08:41:31.988Z,20
2024-05-09T08:42:31.807Z,23
2024-05-09T08:43:31.962Z,23
2024-05-09T08:44:31.402Z,23
2024-05-09T08:45:31.898Z,22
2024-05-09T08:46:31.494Z,22
2024-05-09T08:47:31.976Z,23
2024-05-09T08:48:31.931Z,26
2024-05-09T08:49:31.848Z,26
2024-05-09T08:50:38.324Z,26
2024-05-09T08:51:31.452Z,25
2024-05-09T08:52:32.084Z,26
2024-05-09T08:53:31.526Z,25
2024-05-09T08:54:31.492Z,27
2024-05-09T08:55:31.476Z,26
2024-05-09T08:56:31.707Z,26
2024-05-09T08:57:31.795Z,27
2024-05-09T08:58:31.583Z,28
2024-05-09T08:59:31.967Z,29
2024-05-09T09:00:36.914Z,28
2024-05-09T09:01:31.825Z,26
2024-05-09T09:02:32.065Z,26
2024-05-09T09:03:31.983Z,24
2024-05-09T09:04:31.582Z,24
2024-05-09T09:05:31.745Z,23
2024-05-09T09:06:31.479Z,22
2024-05-09T09:07:32.242Z,24
2024-05-09T09:08:31.431Z,22
2024-05-09T09:09:31.426Z,23
2024-05-09T09:10:33.199Z,22
2024-05-09T09:11:31.964Z,20
2024-05-09T09:12:32.277Z,22
2024-05-09T09:13:31.477Z,23
2024-05-09T09:14:31.584Z,23
2024-05-09T09:15:31.519Z,22
2024-05-09T09:16:31.429Z,22
2024-05-09T09:17:32.394Z,24
2024-05-09T09:18:31.771Z,20
2024-05-09T09:19:32.007Z,22
2024-05-09T09:20:36.390Z,21
2024-05-09T09:21:31.804Z,20
2024-05-09T09:22:31.570Z,18
2024-05-09T09:23:31.929Z,18
2024-05-09T09:24:31.764Z,18
2024-05-09T09:25:31.888Z,18
2024-05-09T09:26:32.362Z,16
2024-05-09T09:27:31.435Z,15
2024-05-09T09:28:31.496Z,15
2024-05-09T09:29:31.423Z,13
2024-05-09T09:30:36.830Z,11
2024-05-09T09:31:32.091Z,14
2024-05-09T09:32:31.509Z,10
2024-05-09T09:33:32.102Z,11
2024-05-09T09:34:31.953Z,9
2024-05-09T09:35:31.433Z,11
2024-05-09T09:36:31.430Z,9
2024-05-09T09:37:31.423Z,10
2024-05-09T09:38:31.977Z,8
2024-05-09T09:39:31.593Z,6
2024-05-09T09:40:33.934Z,9
2024-05-09T09:41:31.510Z,8
2024-05-09T09:42:31.434Z,9
2024-05-09T09:43:30.604Z,7
2024-05-09T09:44:31.426Z,7
2024-05-09T09:45:31.748Z,8
2024-05-09T09:46:31.460Z,5
2024-05-09T09:47:31.874Z,6
2024-05-09T09:48:32.325Z,7
2024-05-09T09:49:32.158Z,6
2024-05-09T09:50:34.559Z,5
2024-05-09T09:51:32.176Z,5
2024-05-09T09:52:31.476Z,4
2024-05-09T09:53:31.409Z,6
2024-05-09T09:54:31.978Z,5
2024-05-09T09:55:31.493Z,9
2024-05-09T09:56:31.468Z,8
2024-05-09T09:57:32.032Z,8
2024-05-09T09:58:31.510Z,8
2024-05-09T09:59:31.384Z,10
2024-05-09T10:00:33.594Z,8
2024-05-09T10:01:32.346Z,7
2024-05-09T10:02:31.577Z,7
2024-05-09T10:03:31.590Z,6
2024-05-09T10:04:31.872Z,7
2024-05-09T10:05:31.512Z,6
2024-05-09T10:06:31.728Z,6
2024-05-09T10:07:31.416Z,7
2024-05-09T10:08:31.400Z,8
2024-05-09T10:09:31.459Z,7
2024-05-09T10:10:33.146Z,5
2024-05-09T10:11:31.779Z,5
2024-05-09T10:12:31.584Z,5
2024-05-09T10:13:31.582Z,5
2024-05-09T10:14:32.028Z,6
2024-05-09T10:15:31.750Z,4
2024-05-09T10:16:31.889Z,4
2024-05-09T10:17:31.995Z,5
2024-05-09T10:18:34.104Z,3
2024-05-09T10:19:31.885Z,3
2024-05-09T10:20:32.911Z,5
2024-05-09T10:21:32.235Z,7
2024-05-09T10:22:32.002Z,4
2024-05-09T10:23:32.248Z,3
2024-05-09T10:24:32.183Z,5
2024-05-09T10:25:32.311Z,4
2024-05-09T10:26:31.429Z,7
2024-05-09T10:27:31.479Z,5
2024-05-09T10:28:31.933Z,6
2024-05-09T10:29:31.412Z,4
2024-05-09T10:30:35.942Z,6
2024-05-09T10:31:31.839Z,5
2024-05-09T10:32:31.520Z,3
2024-05-09T10:33:32.283Z,3
2024-05-09T10:34:32.347Z,7
2024-05-09T10:35:31.511Z,6
2024-05-09T10:36:31.524Z,5
2024-05-09T10:37:31.907Z,5
2024-05-09T10:38:31.483Z,4
2024-05-09T10:39:31.500Z,4
2024-05-09T10:40:32.430Z,5
2024-05-09T10:41:32.442Z,5
2024-05-09T10:42:31.467Z,5
2024-05-09T10:43:31.423Z,4
2024-05-09T10:44:31.435Z,5
2024-05-09T10:45:31.488Z,6
2024-05-09T10:46:31.462Z,6
2024-05-09T10:47:31.577Z,6
2024-05-09T10:48:32.241Z,5
2024-05-09T10:49:32.110Z,5
2024-05-09T10:50:34.195Z,5
2024-05-09T10:51:31.752Z,7
2024-05-09T10:52:31.434Z,7
2024-05-09T10:53:32.266Z,5
2024-05-09T10:54:31.482Z,5
2024-05-09T10:55:32.069Z,4
2024-05-09T10:56:31.513Z,4
2024-05-09T10:57:31.445Z,4
2024-05-09T10:58:31.427Z,5
2024-05-09T10:59:31.427Z,4
2024-05-09T11:00:36.038Z,4
2024-05-09T11:01:31.690Z,7
2024-05-09T11:02:32.196Z,4
2024-05-09T11:03:32.515Z,5
2024-05-09T11:04:32.196Z,4
2024-05-09T11:05:32.169Z,4
2024-05-09T11:06:32.303Z,4
2024-05-09T11:07:31.920Z,4
2024-05-09T11:08:31.438Z,4
2024-05-09T11:09:31.479Z,4
2024-05-09T11:10:34.346Z,4
2024-05-09T11:11:31.967Z,4
2024-05-09T11:12:31.484Z,4
2024-05-09T11:13:31.867Z,4
2024-05-09T11:14:32.161Z,5
2024-05-09T11:15:32.240Z,5
2024-05-09T11:16:31.875Z,4
2024-05-09T11:17:31.794Z,5
2024-05-09T11:18:35.313Z,4
2024-05-09T11:19:31.585Z,5
2024-05-09T11:20:34.834Z,4
2024-05-09T11:21:31.520Z,6
2024-05-09T11:22:32.155Z,5
2024-05-09T11:23:32.170Z,4
2024-05-09T11:24:31.871Z,4
2024-05-09T11:25:31.433Z,5
2024-05-09T11:26:31.421Z,5
2024-05-09T11:27:31.883Z,6
2024-05-09T11:28:32.132Z,7
2024-05-09T11:29:31.719Z,8
2024-05-09T11:30:32.771Z,5
2024-05-09T11:31:31.663Z,4
2024-05-09T11:32:31.568Z,4
2024-05-09T11:33:31.539Z,5
2024-05-09T11:34:32.322Z,4
2024-05-09T11:35:31.435Z,4
2024-05-09T11:36:31.525Z,4
2024-05-09T11:37:34.029Z,3
2024-05-09T11:38:31.479Z,3
2024-05-09T11:39:31.533Z,5
2024-05-09T11:41:31.806Z,3
2024-05-09T11:42:31.523Z,6
2024-05-09T11:43:31.858Z,3
2024-05-09T11:44:32.018Z,5
2024-05-09T11:45:31.928Z,5
2024-05-09T11:46:31.446Z,4
2024-05-09T11:47:31.617Z,4
2024-05-09T11:48:31.797Z,5
2024-05-09T11:49:31.566Z,5
2024-05-09T11:50:35.598Z,7
2024-05-09T11:51:32.299Z,6
2024-05-09T11:52:32.250Z,4
2024-05-09T11:53:32.035Z,5
2024-05-09T11:54:31.480Z,4
2024-05-09T11:55:31.564Z,5
2024-05-09T11:56:31.752Z,4
2024-05-09T11:57:30.752Z,6
2024-05-09T11:58:32.188Z,5
2024-05-09T11:59:31.627Z,3
2024-05-09T12:00:36.795Z,5
2024-05-09T12:01:32.306Z,5
2024-05-09T12:02:32.063Z,5
2024-05-09T12:03:32.766Z,3
2024-05-09T12:04:31.709Z,3
2024-05-09T12:05:31.694Z,5
2024-05-09T12:06:31.465Z,5
2024-05-09T12:07:31.470Z,4
2024-05-09T12:08:32.155Z,4
2024-05-09T12:09:31.451Z,4
2024-05-09T12:10:34.320Z,4
2024-05-09T12:11:31.982Z,4
2024-05-09T12:12:32.242Z,5
2024-05-09T12:13:31.564Z,4
2024-05-09T12:14:31.446Z,5
2024-05-09T12:15:31.523Z,4
2024-05-09T12:16:32.131Z,3
2024-05-09T12:17:31.558Z,4
2024-05-09T12:18:31.660Z,5
2024-05-09T12:19:31.465Z,4
2024-05-09T12:20:37.290Z,5
2024-05-09T12:21:31.563Z,6
2024-05-09T12:22:31.498Z,4
2024-05-09T12:23:32.272Z,4
2024-05-09T12:24:32.141Z,7
2024-05-09T12:25:31.445Z,6
2024-05-09T12:26:31.983Z,5
2024-05-09T12:27:31.474Z,3
2024-05-09T12:28:31.506Z,6
2024-05-09T12:29:32.911Z,3
2024-05-09T12:30:37.401Z,4
2024-05-09T12:31:31.877Z,4
2024-05-09T12:32:31.853Z,4
2024-05-09T12:33:31.713Z,6
2024-05-09T12:34:31.460Z,3
2024-05-09T12:35:31.434Z,3
2024-05-09T12:36:31.524Z,7
2024-05-09T12:37:31.436Z,4
2024-05-09T12:38:31.515Z,3
2024-05-09T12:39:31.575Z,4
2024-05-09T12:40:36.789Z,5
2024-05-09T12:41:31.490Z,4
2024-05-09T12:42:33.708Z,4
2024-05-09T12:43:32.309Z,3
2024-05-09T12:44:31.944Z,2
2024-05-09T12:45:32.688Z,4
2024-05-09T12:46:32.043Z,4
2024-05-09T12:47:31.590Z,4
2024-05-09T12:48:31.693Z,2
2024-05-09T12:49:31.624Z,3
2024-05-09T12:50:33.590Z,3
2024-05-09T12:51:32.307Z,3
2024-05-09T12:52:32.086Z,3
2024-05-09T12:53:31.907Z,8
2024-05-09T12:54:31.580Z,3
2024-05-09T12:55:37.142Z,3
2024-05-09T12:56:31.916Z,4
2024-05-09T12:57:31.876Z,3
2024-05-09T12:58:32.233Z,4
2024-05-09T12:59:31.460Z,4
2024-05-09T13:00:34.237Z,3
2024-05-09T13:01:32.220Z,4
2024-05-09T13:02:31.601Z,3
2024-05-09T13:03:31.594Z,4
2024-05-09T13:04:31.041Z,5
2024-05-09T13:05:31.750Z,5
2024-05-09T13:06:31.537Z,6
2024-05-09T13:07:31.427Z,4
2024-05-09T13:08:31.613Z,3
2024-05-09T13:09:32.012Z,5
2024-05-09T13:10:33.181Z,5
2024-05-09T13:11:31.718Z,3
2024-05-09T13:12:31.544Z,3
2024-05-09T13:13:31.658Z,5
2024-05-09T13:14:32.463Z,6
2024-05-09T13:15:32.368Z,5
2024-05-09T13:16:32.368Z,5
2024-05-09T13:17:31.938Z,4
2024-05-09T13:18:31.984Z,4
2024-05-09T13:19:31.494Z,3
2024-05-09T13:20:34.512Z,5
2024-05-09T13:21:31.873Z,6
2024-05-09T13:22:31.944Z,3
2024-05-09T13:23:32.217Z,3
2024-05-09T13:24:31.799Z,4
2024-05-09T13:25:31.454Z,4
2024-05-09T13:26:31.466Z,5
2024-05-09T13:27:31.835Z,3
2024-05-09T13:28:32.296Z,6
2024-05-09T13:29:32.338Z,6
2024-05-09T13:30:39.308Z,4
2024-05-09T13:31:32.091Z,5
2024-05-09T13:32:32.106Z,4
2024-05-09T13:33:32.005Z,4
2024-05-09T13:34:32.345Z,3
2024-05-09T13:35:31.798Z,3
2024-05-09T13:36:31.535Z,4
2024-05-09T13:37:31.531Z,3
2024-05-09T13:38:31.476Z,4
2024-05-09T13:39:31.932Z,5
2024-05-09T13:40:34.648Z,5
2024-05-09T13:41:31.919Z,5
2024-05-09T13:42:31.981Z,4
2024-05-09T13:43:31.838Z,4
2024-05-09T13:44:32.311Z,6
2024-05-09T13:45:31.977Z,5
2024-05-09T13:46:31.988Z,5
2024-05-09T13:47:31.675Z,4
2024-05-09T13:48:31.695Z,4
2024-05-09T13:49:32.033Z,3
2024-05-09T13:50:35.715Z,4
2024-05-09T13:51:31.540Z,6
2024-05-09T13:52:31.440Z,4
2024-05-09T13:53:32.151Z,5
2024-05-09T13:54:31.522Z,5
2024-05-09T13:55:32.145Z,4
2024-05-09T13:56:31.470Z,4
2024-05-09T13:57:31.970Z,4
2024-05-09T13:58:31.727Z,4
2024-05-09T13:59:31.475Z,5
2024-05-09T14:00:42.455Z,4
2024-05-09T14:01:31.600Z,6
2024-05-09T14:02:31.619Z,4
2024-05-09T14:03:31.982Z,4
2024-05-09T14:04:32.278Z,5
2024-05-09T14:05:32.059Z,4
2024-05-09T14:06:31.661Z,4
2024-05-09T14:07:31.514Z,4
2024-05-09T14:08:31.504Z,3
2024-05-09T14:09:31.558Z,3
2024-05-09T14:10:32.640Z,4
2024-05-09T14:11:30.316Z,3
2024-05-09T14:12:31.543Z,3
2024-05-09T14:13:31.484Z,4
2024-05-09T14:14:31.544Z,4
2024-05-09T14:15:31.716Z,4
2024-05-09T14:16:32.232Z,4
2024-05-09T14:17:31.781Z,4
2024-05-09T14:18:31.700Z,4
2024-05-09T14:19:31.474Z,3
2024-05-09T14:20:32.600Z,4
2024-05-09T14:21:31.956Z,4
2024-05-09T14:22:32.077Z,3
2024-05-09T14:23:32.406Z,3
2024-05-09T14:24:31.643Z,4
2024-05-09T14:25:32.207Z,3
2024-05-09T14:26:31.471Z,3
2024-05-09T14:27:31.581Z,3
2024-05-09T14:28:31.631Z,4
2024-05-09T14:29:32.082Z,3
2024-05-09T14:30:37.024Z,4